Impacts TAF Board INFO
FOR SITUATIONAL AWARENESS. NOT TO BE USED FOR FLIGHT PLANNING PURPOSES.
IDs:

KGWO - Greenwood/Leflore Ar, MS, US

Issued at 2153 UTC 23 May 2018
Updated at 2226 UTC 23 May 2018
Potential Impact None Slight Moderate High
Time<<24/11Z 24/12Z 24/13Z 24/14Z 24/15Z 24/16Z 24/17Z 24/18Z 24/19Z 24/20Z 24/21Z 24/22Z 24/23Z>>
Type PRVL PRVL PRVL PRVL PRVL PRVL PRVL
VIS >6 >6 >6 >6 >6 >6 >6
CIG -- -- -- -- -- -- --
Cover SCT SCT SCT FEW FEW FEW FEW
FltCat VFR VFR VFR VFR VFR VFR VFR
WX -- -- -- -- -- -- --
WDir VRB VRB VRB 120 120 120 120
WSpd 3 3 3 3 3 3 3
WGst -- -- -- -- -- -- --

Raw TAF
KGWO 232153Z 2322/2418 03020G30KT 1SM +TSRA SCT010 BKN025CB
  FM232245 VRB10KT P6SM VCTS SCT020 BKN040CB
  FM240000 VRB03KT P6SM FEW040 SCT100
  FM241400 12003KT P6SM FEW250


METAR Board
Radar Display
Forecast Discussion

FOR SITUATIONAL AWARENESS. NOT TO BE USED FOR FLIGHT PLANNING PURPOSES.